createdAt,value
2022-09-14T05:01:44.213Z,63.03
2022-09-14T05:04:13.450Z,61.15
2022-09-14T05:06:44.629Z,57.84
2022-09-14T05:09:19.073Z,56.26
2022-09-14T05:11:49.994Z,57.26
2022-09-14T05:14:20.319Z,63.88
2022-09-14T05:16:48.941Z,66.63
2022-09-14T05:19:18.939Z,62.25
2022-09-14T05:21:48.153Z,60.34
2022-09-14T05:24:19.589Z,57.67
2022-09-14T05:26:48.810Z,55.62
2022-09-14T05:29:19.710Z,57.14
2022-09-14T05:31:48.850Z,64.92
2022-09-14T05:34:18.991Z,66.83
2022-09-14T05:36:47.862Z,63.41
2022-09-14T05:39:21.095Z,62.00
2022-09-14T05:41:52.709Z,59.46
2022-09-14T05:44:21.489Z,56.36
2022-09-14T05:46:50.246Z,56.58
2022-09-14T05:49:19.269Z,58.29
2022-09-14T05:51:47.984Z,66.02
2022-09-14T05:54:16.741Z,66.48
2022-09-14T05:56:45.752Z,62.71
2022-09-14T05:59:14.650Z,61.54
2022-09-14T06:01:43.599Z,56.97
2022-09-14T06:04:13.031Z,55.52
2022-09-14T06:06:46.928Z,56.84
2022-09-14T06:09:24.949Z,58.36
2022-09-14T06:11:53.630Z,66.63
2022-09-14T06:14:22.431Z,67.38
2022-09-14T06:16:51.225Z,63.37
2022-09-14T06:19:20.090Z,61.48
2022-09-14T06:21:49.089Z,61.01
2022-09-14T06:24:17.889Z,57.52
2022-09-14T06:26:46.575Z,55.67
2022-09-14T06:29:15.449Z,57.04
2022-09-14T06:31:44.354Z,64.00
2022-09-14T06:34:13.090Z,64.58
2022-09-14T06:36:41.829Z,61.48
2022-09-14T06:39:11.440Z,60.36
2022-09-14T06:41:40.110Z,57.38
2022-09-14T06:44:08.909Z,57.49
2022-09-14T06:46:37.689Z,58.23
2022-09-14T06:49:11.771Z,64.73
2022-09-14T06:51:44.233Z,67.10
2022-09-14T06:54:18.295Z,62.48
2022-09-14T06:56:47.549Z,58.05
2022-09-14T06:59:18.203Z,56.27
2022-09-14T07:01:50.391Z,57.56
2022-09-14T07:04:19.715Z,58.99
2022-09-14T07:06:50.630Z,66.84
2022-09-14T07:09:21.052Z,66.72
2022-09-14T07:11:49.848Z,61.54
2022-09-14T07:14:20.550Z,57.15
2022-09-14T07:16:49.700Z,54.74
2022-09-14T07:19:18.849Z,55.47
2022-09-14T07:21:49.028Z,57.03
2022-09-14T07:24:18.050Z,58.61
2022-09-14T07:26:46.807Z,64.71
2022-09-14T07:29:20.459Z,65.18
2022-09-14T07:31:54.810Z,57.66
2022-09-14T07:34:24.510Z,53.51
2022-09-14T07:36:53.301Z,53.85
2022-09-14T07:39:22.291Z,54.80
2022-09-14T07:41:51.189Z,56.26
2022-09-14T07:44:20.190Z,57.66
2022-09-14T07:46:48.989Z,58.81
2022-09-14T07:49:18.616Z,65.64
2022-09-14T07:51:47.369Z,64.81
2022-09-14T07:54:18.710Z,55.03
2022-09-14T07:56:51.189Z,50.94
2022-09-14T07:59:37.165Z,50.61
2022-09-14T08:02:12.227Z,52.04
2022-09-14T08:04:40.898Z,53.39
2022-09-14T08:07:10.175Z,53.85
2022-09-14T08:09:39.953Z,55.05
2022-09-14T08:12:08.702Z,56.35
2022-09-14T08:14:37.701Z,55.69
2022-09-14T08:17:06.382Z,55.90
2022-09-14T08:19:35.970Z,56.89
2022-09-14T08:22:05.589Z,56.88
2022-09-14T08:24:34.212Z,57.81
2022-09-14T08:27:02.782Z,58.81
2022-09-14T08:29:31.550Z,59.12
2022-09-14T08:32:00.405Z,59.70
2022-09-14T08:34:29.430Z,60.19
2022-09-14T08:36:58.337Z,60.10
2022-09-14T08:39:27.229Z,59.24
2022-09-14T08:42:00.539Z,59.07
2022-09-14T08:44:49.366Z,59.73
2022-09-14T08:47:34.722Z,58.60
2022-09-14T08:50:20.391Z,58.52
2022-09-14T08:52:55.752Z,58.37
2022-09-14T08:55:49.152Z,58.59
2022-09-14T08:58:48.971Z,58.84
2022-09-14T09:01:43.789Z,59.13
2022-09-14T09:04:56.572Z,60.31
2022-09-14T09:07:49.502Z,59.58
2022-09-14T09:10:19.331Z,60.98
2022-09-14T09:13:01.951Z,60.05
2022-09-14T09:15:40.480Z,60.16
2022-09-14T09:18:19.442Z,60.02
2022-09-14T09:21:04.551Z,60.00
2022-09-14T09:23:35.669Z,60.97
2022-09-14T09:26:06.871Z,61.84
2022-09-14T09:28:41.691Z,69.20
2022-09-14T09:31:15.472Z,66.77
2022-09-14T09:33:51.160Z,56.81
2022-09-14T09:36:20.589Z,52.81
2022-09-14T09:38:49.257Z,52.39
2022-09-14T09:41:26.061Z,52.88
2022-09-14T09:44:09.861Z,53.23
2022-09-14T09:46:41.184Z,53.91
2022-09-14T09:49:26.990Z,54.51
2022-09-14T09:51:56.921Z,55.92
2022-09-14T09:54:32.830Z,55.80
2022-09-14T09:57:07.390Z,55.93
2022-09-14T09:59:41.493Z,56.34
2022-09-14T10:02:32.678Z,56.26
2022-09-14T10:05:29.329Z,55.88
2022-09-14T10:08:10.768Z,56.08
2022-09-14T10:10:45.018Z,56.24
2022-09-14T10:13:35.353Z,56.25
2022-09-14T10:16:30.625Z,56.28
2022-09-14T10:19:03.251Z,56.63
2022-09-14T10:21:32.351Z,56.76
2022-09-14T10:24:18.020Z,57.98
2022-09-14T10:26:46.708Z,58.09
2022-09-14T10:29:45.090Z,57.82
2022-09-14T10:32:26.062Z,57.90
2022-09-14T10:34:54.852Z,58.18
2022-09-14T10:38:06.341Z,58.66
2022-09-14T10:40:45.780Z,58.43
2022-09-14T10:43:31.072Z,58.48
2022-09-14T10:46:05.754Z,58.43
2022-09-14T10:48:59.149Z,58.57
2022-09-14T10:51:53.341Z,58.45
2022-09-14T10:55:04.722Z,58.50
2022-09-14T10:58:00.990Z,58.69
2022-09-14T11:00:56.792Z,59.61
2022-09-14T11:03:45.237Z,59.57
2022-09-14T11:06:20.460Z,59.66
2022-09-14T11:09:02.109Z,60.03
2022-09-14T11:12:08.841Z,59.97
2022-09-14T11:15:09.581Z,59.88
2022-09-14T11:18:14.811Z,59.51
2022-09-14T11:21:06.129Z,59.83
2022-09-14T11:23:48.094Z,59.26
2022-09-14T11:26:32.397Z,59.50
2022-09-14T11:29:34.429Z,59.23
2022-09-14T11:32:23.389Z,60.02
2022-09-14T11:35:18.929Z,60.18
2022-09-14T11:37:50.075Z,59.57
2022-09-14T11:40:29.881Z,59.59
2022-09-14T11:43:15.889Z,59.51
2022-09-14T11:45:53.618Z,59.51
2022-09-14T11:48:44.828Z,59.30
2022-09-14T11:51:22.901Z,59.05
2022-09-14T11:53:52.774Z,59.91
2022-09-14T11:56:29.730Z,59.20
2022-09-14T11:59:07.926Z,58.80
2022-09-14T12:01:38.159Z,58.98
2022-09-14T12:04:17.018Z,60.13
2022-09-14T12:06:50.450Z,60.17
2022-09-14T12:09:38.930Z,59.77
2022-09-14T12:12:33.323Z,59.57
2022-09-14T12:15:03.839Z,60.57
2022-09-14T12:17:39.931Z,60.91
2022-09-14T12:20:50.842Z,60.18
2022-09-14T12:23:38.219Z,60.05
2022-09-14T12:26:07.008Z,59.97
2022-09-14T12:28:36.509Z,60.66
2022-09-14T12:31:13.692Z,60.37
2022-09-14T12:33:44.441Z,60.59
2022-09-14T12:36:22.230Z,61.02
2022-09-14T12:38:50.917Z,60.94
2022-09-14T12:41:19.811Z,61.47
2022-09-14T12:43:55.730Z,61.20
2022-09-14T12:46:24.285Z,60.90
2022-09-14T12:49:38.610Z,60.92
2022-09-14T12:52:27.981Z,61.52
2022-09-14T12:55:21.577Z,61.30
2022-09-14T12:58:25.489Z,61.87
2022-09-14T13:01:45.760Z,71.94
2022-09-14T13:04:33.491Z,69.96
2022-09-14T13:07:13.140Z,59.56
2022-09-14T13:09:50.362Z,54.00
2022-09-14T13:12:37.054Z,53.56
2022-09-14T13:15:27.431Z,54.21
2022-09-14T13:17:58.508Z,55.08
2022-09-14T13:20:28.637Z,55.83
2022-09-14T13:22:58.589Z,56.02
2022-09-14T13:25:38.329Z,56.38
2022-09-14T13:28:17.173Z,56.63
2022-09-14T13:30:57.074Z,56.57
2022-09-14T13:33:26.309Z,56.99
2022-09-14T13:36:00.428Z,57.65
2022-09-14T13:38:38.132Z,58.15
2022-09-14T13:41:19.753Z,58.78
2022-09-14T13:43:50.595Z,59.85
2022-09-14T13:46:20.707Z,60.08
2022-09-14T13:48:50.863Z,60.99
2022-09-14T13:51:29.905Z,61.25
2022-09-14T13:54:36.834Z,69.12
2022-09-14T13:57:26.311Z,70.31
2022-09-14T14:00:23.214Z,58.73
2022-09-14T14:03:03.458Z,54.10
2022-09-14T14:05:41.689Z,53.88
2022-09-14T14:08:46.735Z,54.79
2022-09-14T14:11:31.775Z,54.86
2022-09-14T14:14:16.889Z,56.13
2022-09-14T14:17:22.956Z,56.74
2022-09-14T14:19:56.366Z,56.09
2022-09-14T14:22:33.989Z,56.79
2022-09-14T14:25:20.408Z,58.59
2022-09-14T14:27:49.439Z,58.87
2022-09-14T14:30:23.596Z,59.85
2022-09-14T14:32:55.228Z,60.46
2022-09-14T14:35:28.548Z,60.59
2022-09-14T14:37:58.108Z,68.53
2022-09-14T14:40:28.203Z,67.99
2022-09-14T14:42:59.448Z,60.69
2022-09-14T14:45:28.550Z,56.18
2022-09-14T14:47:58.937Z,56.24
2022-09-14T14:50:34.361Z,57.48
2022-09-14T14:53:05.589Z,58.11
2022-09-14T14:55:37.721Z,60.08
2022-09-14T14:58:14.529Z,67.58
2022-09-14T15:00:44.023Z,68.75
2022-09-14T15:03:13.076Z,62.19
2022-09-14T15:05:46.726Z,57.31
2022-09-14T15:08:20.243Z,54.95
2022-09-14T15:10:55.368Z,55.80
2022-09-14T15:13:24.177Z,56.56
2022-09-14T15:15:52.909Z,57.70
2022-09-14T15:18:21.829Z,59.14
2022-09-14T15:20:50.833Z,66.31
2022-09-14T15:23:19.508Z,68.77
2022-09-14T15:25:52.189Z,64.08
2022-09-14T15:28:23.193Z,58.31
2022-09-14T15:30:52.748Z,55.03
2022-09-14T15:33:21.687Z,56.04
2022-09-14T15:35:57.314Z,57.29
2022-09-14T15:38:27.180Z,58.86
2022-09-14T15:40:56.128Z,66.05
2022-09-14T15:43:25.087Z,67.87
2022-09-14T15:45:54.373Z,62.77
2022-09-14T15:48:26.291Z,58.36
2022-09-14T15:50:56.268Z,56.04
2022-09-14T15:53:25.261Z,57.16
2022-09-14T15:55:54.257Z,58.85
2022-09-14T15:58:23.140Z,66.35
2022-09-14T16:00:51.994Z,67.09
2022-09-14T16:03:20.829Z,62.97
2022-09-14T16:05:49.728Z,57.20
2022-09-14T16:08:19.327Z,54.62
2022-09-14T16:10:48.869Z,56.15
2022-09-14T16:13:17.621Z,58.31
2022-09-14T16:15:46.808Z,66.52
2022-09-14T16:18:15.409Z,67.81
2022-09-14T16:20:44.289Z,63.88
2022-09-14T16:23:13.289Z,58.34
2022-09-14T16:25:42.069Z,56.66
2022-09-14T16:28:11.069Z,58.08
2022-09-14T16:30:39.849Z,65.04
2022-09-14T16:33:08.534Z,66.19
2022-09-14T16:35:37.529Z,63.37
2022-09-14T16:38:06.429Z,61.57
2022-09-14T16:40:35.255Z,57.89
2022-09-14T16:43:04.417Z,56.41
2022-09-14T16:45:33.258Z,57.72
2022-09-14T16:48:02.869Z,64.12
2022-09-14T16:50:31.812Z,65.96
2022-09-14T16:53:00.688Z,61.78
2022-09-14T16:55:31.532Z,57.74
2022-09-14T16:58:00.530Z,56.20
2022-09-14T17:00:29.468Z,57.60
2022-09-14T17:02:58.709Z,64.43
2022-09-14T17:05:27.508Z,65.76
2022-09-14T17:07:56.291Z,61.58
2022-09-14T17:10:25.091Z,57.68
2022-09-14T17:12:54.193Z,55.83
2022-09-14T17:15:23.480Z,57.21
2022-09-14T17:17:52.168Z,59.48
2022-09-14T17:20:21.072Z,67.21
2022-09-14T17:22:50.149Z,67.18
2022-09-14T17:25:19.041Z,63.42
2022-09-14T17:27:48.026Z,61.34
2022-09-14T17:30:17.948Z,58.35
2022-09-14T17:32:46.848Z,56.80
2022-09-14T17:35:16.149Z,57.97
2022-09-14T17:37:45.021Z,64.94
2022-09-14T17:40:14.396Z,66.90
2022-09-14T17:42:43.228Z,63.40
2022-09-14T17:45:12.830Z,61.49
2022-09-14T17:47:41.646Z,57.01
2022-09-14T17:50:10.809Z,55.25
2022-09-14T17:52:39.929Z,56.95
2022-09-14T17:55:09.348Z,58.92
2022-09-14T17:57:38.209Z,65.88
2022-09-14T18:00:08.250Z,67.45
2022-09-14T18:02:37.201Z,64.14
2022-09-14T18:05:06.229Z,61.60
2022-09-14T18:07:35.230Z,57.31
2022-09-14T18:10:04.729Z,55.60
2022-09-14T18:12:36.789Z,57.17
2022-09-14T18:15:06.909Z,59.04
2022-09-14T18:17:35.890Z,66.67
2022-09-14T18:20:06.608Z,67.34
2022-09-14T18:22:39.229Z,63.76
2022-09-14T18:25:09.958Z,62.04
2022-09-14T18:27:38.829Z,57.99
2022-09-14T18:30:08.931Z,55.45
2022-09-14T18:32:37.648Z,57.08
2022-09-14T18:35:07.649Z,64.55
2022-09-14T18:37:37.088Z,65.85
2022-09-14T18:40:06.702Z,62.75
2022-09-14T18:42:35.446Z,58.14
2022-09-14T18:45:04.870Z,56.04
2022-09-14T18:47:33.751Z,57.73
2022-09-14T18:50:02.528Z,64.96
2022-09-14T18:52:31.428Z,66.27
2022-09-14T18:55:00.333Z,63.19
2022-09-14T18:57:29.112Z,60.77
2022-09-14T18:59:57.689Z,56.64
2022-09-14T19:02:26.712Z,55.48
2022-09-14T19:04:55.990Z,57.09
2022-09-14T19:07:26.931Z,63.88
2022-09-14T19:09:57.451Z,65.84
2022-09-14T19:12:26.354Z,62.37
2022-09-14T19:14:55.657Z,58.05
2022-09-14T19:17:24.649Z,55.89
2022-09-14T19:19:53.757Z,57.40
2022-09-14T19:22:22.628Z,64.14
2022-09-14T19:24:51.530Z,65.59
2022-09-14T19:27:20.828Z,63.16
2022-09-14T19:29:49.909Z,60.79
2022-09-14T19:32:19.828Z,56.92
2022-09-14T19:34:49.750Z,55.99
2022-09-14T19:37:18.529Z,58.04
2022-09-14T19:39:47.264Z,65.58
2022-09-14T19:42:16.017Z,66.08
2022-09-14T19:44:44.709Z,62.96
2022-09-14T19:47:13.497Z,61.67
2022-09-14T19:49:42.590Z,57.51
2022-09-14T19:52:11.369Z,55.83
2022-09-14T19:54:40.250Z,57.34
2022-09-14T19:57:09.148Z,64.09
2022-09-14T19:59:38.650Z,66.20
2022-09-14T20:02:11.630Z,63.25
2022-09-14T20:04:41.156Z,62.37
2022-09-14T20:07:10.050Z,60.65
2022-09-14T20:09:39.248Z,57.32
2022-09-14T20:12:08.329Z,56.27
2022-09-14T20:14:37.628Z,57.98
2022-09-14T20:17:07.049Z,65.06
2022-09-14T20:19:36.848Z,65.89
2022-09-14T20:22:05.850Z,62.60
2022-09-14T20:24:36.369Z,61.35
2022-09-14T20:27:05.289Z,61.24
2022-09-14T20:29:35.740Z,61.37
2022-09-14T20:32:06.429Z,60.67
2022-09-14T20:34:35.117Z,60.10
2022-09-14T20:37:04.208Z,57.94
2022-09-14T20:39:36.491Z,56.52
2022-09-14T20:42:06.350Z,58.23
2022-09-14T20:44:35.098Z,64.59
2022-09-14T20:47:04.189Z,66.45
2022-09-14T20:49:33.229Z,62.82
2022-09-14T20:52:03.349Z,61.89
2022-09-14T20:54:32.209Z,61.36
2022-09-14T20:57:04.517Z,60.36
2022-09-14T20:59:34.169Z,57.19
2022-09-14T21:02:05.571Z,55.82
2022-09-14T21:04:36.231Z,57.46
2022-09-14T21:07:06.054Z,64.31
2022-09-14T21:09:35.969Z,66.12
2022-09-14T21:12:05.269Z,63.04
2022-09-14T21:14:34.071Z,61.19
2022-09-14T21:17:02.651Z,57.50
2022-09-14T21:19:31.749Z,56.27
2022-09-14T21:22:00.432Z,58.20
2022-09-14T21:24:31.473Z,65.28
2022-09-14T21:27:00.177Z,66.87
2022-09-14T21:29:28.957Z,63.43
2022-09-14T21:31:57.738Z,61.49
2022-09-14T21:34:26.928Z,60.61
2022-09-14T21:36:55.631Z,60.47
2022-09-14T21:39:27.535Z,60.37
2022-09-14T21:41:59.701Z,57.53
2022-09-14T21:44:34.912Z,56.26
2022-09-14T21:47:05.129Z,58.23
2022-09-14T21:49:34.011Z,65.65
2022-09-14T21:52:04.250Z,66.70
2022-09-14T21:54:33.009Z,63.76
2022-09-14T21:57:01.809Z,61.27
